Time;durP1;ratioP1;P1;durP2;ratioP2;P2;SDS_P1;SDS_P2;PMS_P1;PMS_P2;Temp;Humidity;BMP_temperature;BMP_pressure;BME280_temperature;BME280_humidity;BME280_pressure;Samples;Min_cycle;Max_cycle;Signal;HPM_P1;HPM_P2
2021/04/15 00:01:38;;;;;;;6.37;4.20;;;10.00;1.00;;;;;;5070896;28;20176;-58
2021/04/15 00:04:05;;;;;;;4.83;3.50;;;6.50;1.00;;;;;;5072667;28;20183;-58
2021/04/15 00:06:31;;;;;;;5.00;3.83;;;6.50;1.00;;;;;;5071483;28;20537;-58
2021/04/15 00:08:59;;;;;;;5.03;3.07;;;6.50;1.00;;;;;;5079813;28;20535;-58
2021/04/15 00:11:28;;;;;;;3.97;2.67;;;6.50;1.00;;;;;;5071425;28;20453;-59
2021/04/15 00:13:56;;;;;;;5.70;4.03;;;6.40;1.00;;;;;;5070167;28;20441;-58
2021/04/15 00:16:23;;;;;;;3.50;3.20;;;6.50;1.00;;;;;;5072943;28;20453;-58
2021/04/15 00:18:49;;;;;;;5.53;3.20;;;6.30;1.00;;;;;;5072014;28;20444;-58
2021/04/15 00:21:16;;;;;;;4.30;2.80;;;6.30;1.00;;;;;;5072525;28;20795;-58
2021/04/15 00:23:42;;;;;;;5.13;2.50;;;6.20;1.00;;;;;;5071700;28;21000;-58
2021/04/15 00:26:10;;;;;;;3.70;2.73;;;6.20;1.00;;;;;;5072062;28;20449;-58
2021/04/15 00:28:35;;;;;;;11.03;3.17;;;6.20;1.00;;;;;;5071225;28;20576;-58
2021/04/15 00:31:02;;;;;;;3.73;3.43;;;6.30;1.00;;;;;;5068300;28;20532;-59
2021/04/15 00:33:27;;;;;;;7.40;3.03;;;6.30;1.00;;;;;;5071371;28;20449;-58
2021/04/15 00:35:53;;;;;;;5.37;3.53;;;6.20;1.00;;;;;;5072347;28;20515;-58
2021/04/15 00:38:21;;;;;;;4.80;3.43;;;6.20;1.00;;;;;;5071796;28;20191;-58
2021/04/15 00:40:48;;;;;;;4.67;3.60;;;6.20;1.00;;;;;;5077103;28;20270;-58
2021/04/15 00:43:15;;;;;;;11.13;3.40;;;6.20;1.00;;;;;;5073072;28;20438;-58
2021/04/15 00:45:43;;;;;;;6.53;3.37;;;6.50;1.00;;;;;;5072072;28;20438;-58
2021/04/15 00:48:14;;;;;;;3.63;3.33;;;6.10;1.00;;;;;;5068257;28;20491;-58
2021/04/15 00:50:52;;;;;;;3.77;3.43;;;6.20;1.00;;;;;;5076203;28;20440;-58
2021/04/15 00:53:23;;;;;;;7.67;3.13;;;6.10;1.00;;;;;;5074620;28;20475;-58
2021/04/15 00:55:48;;;;;;;4.27;3.13;;;6.10;1.00;;;;;;5071266;28;20461;-57
2021/04/15 00:58:15;;;;;;;5.70;2.93;;;6.20;1.00;;;;;;5071224;28;20437;-59
2021/04/15 01:00:42;;;;;;;5.40;3.60;;;6.10;1.00;;;;;;5070924;28;20183;-57
2021/04/15 01:03:08;;;;;;;6.50;3.60;;;6.00;1.00;;;;;;5071469;28;20445;-58
2021/04/15 01:05:43;;;;;;;3.87;3.40;;;6.00;1.00;;;;;;5070863;28;20939;-57
2021/04/15 01:08:09;;;;;;;5.10;3.70;;;;;;;;;;5065068;28;20508;-58
2021/04/15 01:10:39;;;;;;;4.20;3.67;;;6.10;1.00;;;;;;5070843;28;20444;-58
2021/04/15 01:13:11;;;;;;;4.43;3.70;;;5.90;1.00;;;;;;5075860;28;20437;-58
2021/04/15 01:16:05;;;;;;;5.67;3.43;;;5.90;1.00;;;;;;5070766;28;20469;-58
2021/04/15 01:18:44;;;;;;;5.60;3.57;;;5.80;1.00;;;;;;5067534;28;20455;-58
2021/04/15 01:21:33;;;;;;;7.20;4.20;;;5.90;1.00;;;;;;5067914;28;20503;-58
2021/04/15 01:24:05;;;;;;;7.40;4.23;;;5.90;1.00;;;;;;5070100;28;20768;-58
2021/04/15 01:26:51;;;;;;;4.70;3.70;;;5.90;1.00;;;;;;5064298;28;21021;-58
2021/04/15 01:29:51;;;;;;;7.60;3.53;;;5.80;1.00;;;;;;5070177;28;20441;-58
2021/04/15 01:32:26;;;;;;;4.90;3.00;;;5.70;1.00;;;;;;5071118;28;20934;-58
2021/04/15 01:35:14;;;;;;;5.10;3.90;;;5.60;1.00;;;;;;5066869;28;20441;-58
2021/04/15 01:37:47;;;;;;;3.40;3.10;;;5.60;1.00;;;;;;5070081;28;20437;-58
2021/04/15 01:40:25;;;;;;;4.00;3.60;;;5.60;1.00;;;;;;5068453;28;20445;-58
2021/04/15 01:43:13;;;;;;;4.10;3.10;;;5.60;1.00;;;;;;5070730;28;20437;-58
2021/04/15 01:45:40;;;;;;;4.80;3.13;;;5.60;1.00;;;;;;5067582;28;20539;-59
2021/04/15 01:48:13;;;;;;;4.30;2.97;;;5.50;1.00;;;;;;5078012;28;20832;-58
2021/04/15 01:50:52;;;;;;;6.73;3.60;;;5.50;1.00;;;;;;5085495;28;20937;-58
2021/04/15 01:53:44;;;;;;;5.20;2.93;;;5.60;1.00;;;;;;5075936;28;20504;-58
2021/04/15 01:56:11;;;;;;;5.70;3.20;;;5.50;1.00;;;;;;5071444;28;20473;-58
2021/04/15 01:58:58;;;;;;;5.23;3.50;;;5.50;1.00;;;;;;5067842;28;20477;-58
2021/04/15 02:01:24;;;;;;;3.97;3.33;;;5.50;1.00;;;;;;5072554;28;20612;-58
2021/04/15 02:03:55;;;;;;;3.80;3.20;;;5.30;1.00;;;;;;5065696;28;20456;-58
2021/04/15 02:06:27;;;;;;;3.43;3.10;;;5.30;1.00;;;;;;5069908;28;20803;-58
2021/04/15 02:09:00;;;;;;;4.90;2.90;;;5.30;1.00;;;;;;5073204;28;20904;-58
2021/04/15 02:11:38;;;;;;;6.93;2.67;;;5.40;1.00;;;;;;5070660;28;20463;-58
2021/04/15 02:14:05;;;;;;;4.10;3.20;;;5.40;1.00;;;;;;5069673;28;20806;-58
2021/04/15 02:16:33;;;;;;;5.07;3.57;;;5.40;1.00;;;;;;5070547;28;20461;-58
2021/04/15 02:19:07;;;;;;;3.63;2.50;;;5.30;1.00;;;;;;5068034;28;20438;-58
2021/04/15 02:21:45;;;;;;;4.43;3.07;;;5.30;1.00;;;;;;5070405;28;20441;-57
2021/04/15 02:24:37;;;;;;;9.23;3.40;;;5.40;1.00;;;;;;5067890;28;20503;-58
2021/04/15 02:27:20;;;;;;;5.10;2.73;;;5.50;1.00;;;;;;5063728;28;20477;-58
2021/04/15 02:29:58;;;;;;;9.70;3.50;;;5.50;1.00;;;;;;5066744;28;20454;-57
2021/04/15 02:32:26;;;;;;;8.67;3.13;;;5.50;1.00;;;;;;5071012;28;20791;-57
2021/04/15 02:35:02;;;;;;;7.00;3.67;;;5.60;1.00;;;;;;5070180;28;20442;-57
2021/04/15 02:37:38;;;;;;;5.10;3.40;;;5.40;1.00;;;;;;5085093;28;20978;-58
2021/04/15 02:40:10;;;;;;;4.10;3.70;;;5.40;1.00;;;;;;5082999;28;20463;-58
2021/04/15 02:42:38;;;;;;;9.00;3.07;;;5.30;1.00;;;;;;5080513;28;20555;-57
2021/04/15 02:45:19;;;;;;;5.93;3.73;;;5.20;1.00;;;;;;5074359;28;20539;-57
2021/04/15 02:47:52;;;;;;;4.60;3.63;;;5.20;1.00;;;;;;5080085;28;20440;-57
2021/04/15 02:50:22;;;;;;;6.87;3.83;;;5.30;1.00;;;;;;5072589;28;20818;-58
2021/04/15 02:52:54;;;;;;;6.80;4.20;;;5.30;1.00;;;;;;5080579;28;20443;-58
2021/04/15 02:55:24;;;;;;;5.17;3.73;;;5.40;1.00;;;;;;5080920;28;20982;-57
2021/04/15 02:58:09;;;;;;;7.90;4.57;;;5.30;1.00;;;;;;5073975;28;20441;-58
2021/04/15 03:00:39;;;;;;;8.90;5.00;;;5.30;1.00;;;;;;5071592;28;20449;-58
2021/04/15 03:03:09;;;;;;;5.13;3.33;;;5.30;1.00;;;;;;5079597;28;20433;-58
2021/04/15 03:05:44;;;;;;;6.30;4.40;;;5.20;1.00;;;;;;5072718;28;20505;-57
2021/04/15 03:08:13;;;;;;;9.00;3.90;;;5.30;1.00;;;;;;5074452;28;20436;-57
2021/04/15 03:10:47;;;;;;;5.43;3.90;;;5.30;1.00;;;;;;5083766;28;20433;-58
2021/04/15 03:13:19;;;;;;;4.77;3.97;;;5.20;1.00;;;;;;5075364;28;20451;-58
2021/04/15 03:15:51;;;;;;;4.60;4.20;;;5.30;1.00;;;;;;5071949;28;20458;-58
2021/04/15 03:18:27;;;;;;;13.80;5.13;;;5.30;1.00;;;;;;5077874;28;20436;-58
2021/04/15 03:21:05;;;;;;;5.17;4.00;;;5.40;1.00;;;;;;5082729;28;21050;-57
2021/04/15 03:23:54;;;;;;;5.00;4.50;;;5.20;1.00;;;;;;5073278;28;21013;-57
2021/04/15 03:26:29;;;;;;;5.13;4.17;;;5.20;1.00;;;;;;5075566;28;20449;-58
2021/04/15 03:29:09;;;;;;;7.93;4.00;;;5.10;1.00;;;;;;5070735;28;20444;-63
2021/04/15 03:31:43;;;;;;;5.37;3.93;;;5.10;1.00;;;;;;5072011;28;20445;-58
2021/04/15 03:34:27;;;;;;;7.27;4.57;;;4.90;1.00;;;;;;5072373;28;20444;-58
2021/04/15 03:36:56;;;;;;;5.70;4.53;;;4.90;1.00;;;;;;5070269;28;20468;-58
2021/04/15 03:39:32;;;;;;;5.60;4.00;;;4.90;1.00;;;;;;5082950;28;20798;-57
2021/04/15 03:42:06;;;;;;;6.23;4.40;;;4.80;1.00;;;;;;5086541;28;20444;-57
2021/04/15 03:44:38;;;;;;;4.67;3.30;;;4.80;1.00;;;;;;5068373;28;20701;-58
2021/04/15 03:47:09;;;;;;;4.50;3.57;;;4.70;1.00;;;;;;5070224;28;20480;-58
2021/04/15 03:49:37;;;;;;;6.90;3.70;;;4.70;1.00;;;;;;5070804;28;20452;-58
2021/04/15 03:52:31;;;;;;;7.60;3.77;;;4.80;1.00;;;;;;5084810;28;20433;-58
2021/04/15 03:55:23;;;;;;;7.43;3.67;;;4.80;1.00;;;;;;5078266;28;20477;-57
2021/04/15 03:57:52;;;;;;;5.47;3.60;;;4.60;1.00;;;;;;5069640;28;20449;-58
2021/04/15 04:00:26;;;;;;;5.13;3.53;;;4.60;1.00;;;;;;5084455;28;20481;-58
2021/04/15 04:03:06;;;;;;;3.53;3.00;;;4.60;1.00;;;;;;5071431;28;20529;-58
2021/04/15 04:05:40;;;;;;;3.70;3.30;;;4.60;1.00;;;;;;5068730;28;20495;-57
2021/04/15 04:08:11;;;;;;;3.93;3.10;;;4.60;1.00;;;;;;5066755;28;20456;-57
2021/04/15 04:10:43;;;;;;;4.53;3.10;;;4.50;1.00;;;;;;5082862;28;20438;-58
2021/04/15 04:13:22;;;;;;;8.70;3.50;;;4.50;1.00;;;;;;5071206;28;20430;-57
2021/04/15 04:15:56;;;;;;;6.40;3.20;;;4.50;1.00;;;;;;5070776;28;20481;-57
2021/04/15 04:18:29;;;;;;;4.47;2.80;;;4.50;1.00;;;;;;5071590;28;20565;-61
2021/04/15 04:21:01;;;;;;;3.57;2.67;;;4.40;1.00;;;;;;5071248;28;20445;-61
2021/04/15 04:23:43;;;;;;;6.80;3.17;;;4.40;1.00;;;;;;5071099;28;20960;-61
2021/04/15 04:29:28;;;;;;;3.10;2.80;;;4.40;1.00;;;;;;5087638;27;20568;-63
2021/04/15 04:31:59;;;;;;;6.57;2.90;;;4.40;1.00;;;;;;5084395;28;20573;-62
2021/04/15 04:34:27;;;;;;;4.70;2.90;;;4.50;1.00;;;;;;5087862;28;20534;-61
2021/04/15 04:36:54;;;;;;;5.47;3.40;;;4.60;1.00;;;;;;5086893;28;20459;-62
2021/04/15 04:39:23;;;;;;;4.30;3.27;;;4.60;1.00;;;;;;5087867;28;20440;-61
2021/04/15 04:41:59;;;;;;;6.53;3.70;;;4.60;1.00;;;;;;5087401;28;20443;-61
2021/04/15 04:44:37;;;;;;;6.10;3.43;;;4.60;1.00;;;;;;5086880;28;20439;-62
2021/04/15 04:47:15;;;;;;;5.17;3.23;;;4.50;1.00;;;;;;5087283;28;20506;-60
2021/04/15 04:49:44;;;;;;;4.10;3.70;;;4.50;1.00;;;;;;5087727;28;20790;-60
2021/04/15 04:52:19;;;;;;;5.43;3.67;;;4.50;1.00;;;;;;5087495;28;20462;-60
2021/04/15 04:54:45;;;;;;;4.13;3.73;;;4.50;1.00;;;;;;5087656;28;20424;-60
2021/04/15 04:57:33;;;;;;;5.83;3.60;;;4.50;1.00;;;;;;5086694;28;20450;-60
2021/04/15 05:00:04;;;;;;;4.70;4.23;;;4.50;1.00;;;;;;5086139;28;20578;-61
2021/04/15 05:02:29;;;;;;;5.10;3.27;;;4.50;1.00;;;;;;5087432;28;21013;-60
2021/04/15 05:05:06;;;;;;;9.13;4.00;;;4.50;1.00;;;;;;5087159;28;20527;-60
2021/04/15 05:07:34;;;;;;;4.50;3.40;;;4.50;1.00;;;;;;5085672;28;20213;-61
2021/04/15 05:10:00;;;;;;;5.90;4.53;;;4.60;1.00;;;;;;5087179;28;20440;-61
2021/04/15 05:12:33;;;;;;;8.27;4.30;;;4.70;1.00;;;;;;5086924;28;20437;-61
2021/04/15 05:14:59;;;;;;;6.40;4.57;;;4.60;1.00;;;;;;5086974;28;20436;-60
2021/04/15 05:17:36;;;;;;;8.30;4.90;;;4.50;1.00;;;;;;5086494;28;20443;-61
2021/04/15 05:20:18;;;;;;;8.67;4.73;;;4.50;1.00;;;;;;5087245;28;20451;-60
2021/04/15 05:23:01;;;;;;;4.43;3.70;;;4.50;1.00;;;;;;5087436;28;21087;-60
2021/04/15 05:25:37;;;;;;;4.20;3.80;;;4.60;1.00;;;;;;5085794;28;20541;-58
2021/04/15 05:28:06;;;;;;;5.97;3.70;;;4.40;1.00;;;;;;5084282;28;20518;-58
2021/04/15 05:30:37;;;;;;;6.40;3.90;;;4.50;1.00;;;;;;5088117;28;20799;-58
2021/04/15 05:33:05;;;;;;;5.67;4.10;;;4.50;1.00;;;;;;5090227;28;20437;-58
2021/04/15 05:35:39;;;;;;;8.40;4.40;;;4.60;1.00;;;;;;5085125;28;20456;-58
2021/04/15 05:38:10;;;;;;;4.10;3.70;;;4.70;1.00;;;;;;5068072;28;20527;-56
2021/04/15 05:40:37;;;;;;;4.80;3.93;;;4.80;1.00;;;;;;5072519;28;20805;-58
2021/04/15 05:43:42;;;;;;;6.13;4.37;;;4.80;1.00;;;;;;5076952;28;20429;-57
2021/04/15 05:46:22;;;;;;;7.70;4.03;;;4.80;1.00;;;;;;5072056;28;20514;-57
2021/04/15 05:48:53;;;;;;;9.73;4.00;;;4.90;1.00;;;;;;5072309;28;20465;-57
2021/04/15 05:51:24;;;;;;;4.77;4.30;;;4.80;1.00;;;;;;5071785;28;20437;-57
2021/04/15 05:54:03;;;;;;;6.47;4.13;;;4.80;1.00;;;;;;5070859;28;20963;-58
2021/04/15 05:56:39;;;;;;;9.70;4.60;;;4.90;1.00;;;;;;5073314;28;20426;-57
2021/04/15 05:59:22;;;;;;;4.57;3.90;;;4.90;1.00;;;;;;5074942;28;20921;-56
2021/04/15 06:01:48;;;;;;;7.47;4.20;;;4.90;1.00;;;;;;5072335;28;20443;-57
2021/04/15 06:04:28;;;;;;;9.40;4.30;;;4.90;1.00;;;;;;5079096;28;20442;-56
2021/04/15 06:06:54;;;;;;;7.07;4.83;;;4.90;1.00;;;;;;5072314;28;20219;-56
2021/04/15 06:09:20;;;;;;;6.33;4.27;;;5.00;1.00;;;;;;5071885;28;20440;-57
2021/04/15 06:11:59;;;;;;;6.27;4.97;;;5.00;1.00;;;;;;5071408;28;20535;-57
2021/04/15 06:14:30;;;;;;;4.73;3.80;;;5.00;1.00;;;;;;5072191;28;20285;-56
2021/04/15 06:17:23;;;;;;;8.50;4.53;;;5.10;1.00;;;;;;5071879;28;20539;-58
2021/04/15 06:19:54;;;;;;;6.43;4.17;;;5.20;1.00;;;;;;5071719;28;20893;-58
2021/04/15 06:22:23;;;;;;;9.23;5.90;;;5.20;1.00;;;;;;5071711;28;20437;-58
2021/04/15 06:24:55;;;;;;;5.80;4.20;;;5.40;1.00;;;;;;5069739;28;20491;-58
2021/04/15 06:27:21;;;;;;;7.10;5.20;;;5.50;1.00;;;;;;5070906;28;20481;-58
2021/04/15 06:30:01;;;;;;;9.10;5.83;;;5.40;1.00;;;;;;5071463;28;20442;-58
2021/04/15 06:32:38;;;;;;;6.37;4.33;;;5.70;1.00;;;;;;5071047;28;20437;-57
2021/04/15 06:35:07;;;;;;;5.53;4.10;;;5.70;1.00;;;;;;5072119;28;20482;-57
2021/04/15 06:37:43;;;;;;;7.03;4.37;;;5.70;1.00;;;;;;5071362;28;20465;-58
2021/04/15 06:40:32;;;;;;;6.87;4.60;;;5.80;1.00;;;;;;5069935;28;20441;-59
2021/04/15 06:43:14;;;;;;;5.37;4.27;;;6.00;1.00;;;;;;5060226;28;20974;-59
2021/04/15 06:45:54;;;;;;;9.07;5.60;;;6.20;1.00;;;;;;5071940;28;20946;-59
2021/04/15 06:48:43;;;;;;;4.87;4.20;;;6.30;1.00;;;;;;5071041;28;20984;-57
2021/04/15 06:51:27;;;;;;;8.33;4.90;;;6.30;1.00;;;;;;5069943;28;20472;-57
2021/04/15 06:54:10;;;;;;;6.97;4.30;;;6.40;1.00;;;;;;5071195;28;20537;-58
2021/04/15 06:56:59;;;;;;;6.57;4.33;;;6.60;1.00;;;;;;5069915;28;20498;-59
2021/04/15 06:59:43;;;;;;;6.43;4.30;;;6.60;1.00;;;;;;5068780;28;20944;-56
2021/04/15 07:02:38;;;;;;;5.80;4.73;;;6.70;1.00;;;;;;5070676;28;20444;-58
2021/04/15 07:05:12;;;;;;;11.40;5.70;;;6.70;1.00;;;;;;5069419;28;20451;-58
2021/04/15 07:07:40;;;;;;;6.53;4.33;;;6.80;1.00;;;;;;5068995;28;20977;-58
2021/04/15 07:10:36;;;;;;;5.57;4.60;;;7.10;1.00;;;;;;5071340;28;20461;-58
2021/04/15 07:13:22;;;;;;;9.60;4.77;;;7.10;1.00;;;;;;5069753;28;20449;-58
2021/04/15 07:16:13;;;;;;;10.50;5.03;;;7.20;1.00;;;;;;5068786;28;20807;-57
2021/04/15 07:18:47;;;;;;;7.90;4.50;;;7.20;1.00;;;;;;5068422;28;20457;-58
2021/04/15 07:21:47;;;;;;;8.00;4.97;;;7.20;1.00;;;;;;5069667;28;20792;-57
2021/04/15 07:24:41;;;;;;;5.33;4.30;;;7.00;1.00;;;;;;5069150;28;20513;-57
2021/04/15 07:27:45;;;;;;;5.10;3.77;;;7.20;1.00;;;;;;5066770;28;20465;-59
2021/04/15 07:30:15;;;;;;;6.50;4.50;;;7.40;1.00;;;;;;5069208;28;20430;-57
2021/04/15 07:33:15;;;;;;;5.33;3.83;;;7.40;1.00;;;;;;5068251;28;20485;-58
2021/04/15 07:36:11;;;;;;;7.97;4.50;;;7.40;1.00;;;;;;5066617;28;21022;-59
2021/04/15 07:38:59;;;;;;;7.60;4.57;;;7.80;1.00;;;;;;5067725;28;20441;-58
2021/04/15 07:41:46;;;;;;;5.40;3.90;;;8.10;1.00;;;;;;5067563;28;21007;-59
2021/04/15 07:44:24;;;;;;;9.03;4.50;;;8.10;1.00;;;;;;5068402;28;20437;-58
2021/04/15 07:47:28;;;;;;;5.90;3.97;;;7.90;1.00;;;;;;5067431;28;20548;-58
2021/04/15 07:50:24;;;;;;;4.70;4.13;;;8.00;1.00;;;;;;5067863;28;21008;-59
2021/04/15 07:53:21;;;;;;;6.33;3.80;;;8.00;1.00;;;;;;5069143;28;20443;-59
2021/04/15 07:56:19;;;;;;;5.57;3.83;;;8.00;1.00;;;;;;5071615;28;20437;-58
2021/04/15 07:59:07;;;;;;;6.93;3.97;;;7.90;1.00;;;;;;5069278;28;20881;-57
2021/04/15 08:02:10;;;;;;;7.00;4.60;;;7.70;1.00;;;;;;5069785;28;20439;-58
2021/04/15 08:05:03;;;;;;;3.50;2.97;;;7.70;1.00;;;;;;5068439;28;20449;-59
2021/04/15 08:08:19;;;;;;;4.40;3.10;;;7.90;1.00;;;;;;5065773;28;20552;-59
2021/04/15 08:11:00;;;;;;;6.90;4.80;;;8.00;1.00;;;;;;5037174;28;20444;-60
2021/04/15 08:13:40;;;;;;;3.97;3.17;;;8.10;1.00;;;;;;5070144;28;20452;-59
2021/04/15 08:16:39;;;;;;;3.63;3.00;;;8.50;1.00;;;;;;5067866;28;20471;-59
2021/04/15 08:19:35;;;;;;;5.03;3.00;;;8.40;1.00;;;;;;5047048;28;20994;-60
2021/04/15 08:22:13;;;;;;;3.47;2.67;;;8.50;1.00;;;;;;5070013;28;20422;-59
2021/04/15 08:24:53;;;;;;;4.23;3.37;;;8.50;1.00;;;;;;5070152;28;20437;-58
2021/04/15 08:28:04;;;;;;;4.33;2.90;;;8.80;1.00;;;;;;5068513;28;20470;-59
2021/04/15 08:30:45;;;;;;;3.60;2.67;;;9.00;1.00;;;;;;5067758;28;20437;-57
2021/04/15 08:33:30;;;;;;;4.53;2.90;;;9.10;1.00;;;;;;5069690;28;20465;-58
2021/04/15 08:36:04;;;;;;;7.67;5.17;;;9.20;1.00;;;;;;5069452;28;20756;-58
2021/04/15 08:38:48;;;;;;;5.03;3.77;;;9.30;1.00;;;;;;5070109;28;20930;-58
2021/04/15 08:41:35;;;;;;;3.00;2.57;;;9.60;1.00;;;;;;5069843;28;20437;-59
2021/04/15 08:44:26;;;;;;;4.47;2.30;;;9.20;1.00;;;;;;5067687;28;20468;-57
2021/04/15 08:47:16;;;;;;;3.60;2.70;;;9.20;1.00;;;;;;5069285;28;20931;-57
2021/04/15 08:50:17;;;;;;;3.90;3.33;;;9.30;1.00;;;;;;5069899;28;20786;-57
2021/04/15 08:52:58;;;;;;;4.13;3.23;;;9.30;1.00;;;;;;5069428;28;20590;-58
2021/04/15 08:55:36;;;;;;;4.90;3.00;;;9.10;1.00;;;;;;5069755;28;20803;-59
2021/04/15 08:58:24;;;;;;;2.20;2.00;;;9.10;1.00;;;;;;5069641;28;20939;-57
2021/04/15 09:01:15;;;;;;;4.20;3.70;;;9.30;1.00;;;;;;5068864;28;20445;-58
2021/04/15 09:04:11;;;;;;;3.43;3.10;;;9.40;1.00;;;;;;5070226;28;20453;-57
2021/04/15 09:07:02;;;;;;;3.30;1.90;;;9.70;1.00;;;;;;5068136;28;20427;-58
2021/04/15 09:09:45;;;;;;;2.97;2.63;;;9.90;1.00;;;;;;5068870;28;20442;-57
2021/04/15 09:12:35;;;;;;;3.73;2.57;;;9.70;1.00;;;;;;5068957;28;20444;-58
2021/04/15 09:15:07;;;;;;;4.43;2.07;;;9.90;1.00;;;;;;5072228;28;20450;-58
2021/04/15 09:17:41;;;;;;;4.70;2.33;;;10.30;1.00;;;;;;5078269;28;20436;-58
2021/04/15 09:20:26;;;;;;;3.00;2.23;;;10.40;1.00;;;;;;5070008;28;20798;-59
2021/04/15 09:23:13;;;;;;;6.33;3.30;;;10.50;1.00;;;;;;5074980;28;20467;-59
2021/04/15 09:25:53;;;;;;;9.03;2.90;;;10.70;1.00;;;;;;5072655;28;20474;-58
2021/04/15 09:28:49;;;;;;;2.63;2.43;;;10.80;1.00;;;;;;5072695;28;20567;-59
2021/04/15 09:31:29;;;;;;;4.50;3.10;;;10.90;1.00;;;;;;5070037;28;20444;-58
2021/04/15 09:33:58;;;;;;;2.60;2.20;;;11.20;1.00;;;;;;5062456;28;20437;-58
2021/04/15 09:36:58;;;;;;;3.87;2.60;;;11.20;1.00;;;;;;5071768;28;20439;-59
2021/04/15 09:39:45;;;;;;;1.93;1.67;;;11.30;1.00;;;;;;5035304;28;20788;-58
2021/04/15 09:42:48;;;;;;;3.73;3.00;;;10.50;1.00;;;;;;5071789;28;20436;-57
2021/04/15 09:45:38;;;;;;;2.53;2.30;;;11.00;1.00;;;;;;5077220;28;20460;-59
2021/04/15 09:48:23;;;;;;;4.13;2.60;;;10.70;1.00;;;;;;5073429;28;20468;-58
2021/04/15 09:51:10;;;;;;;3.17;2.97;;;10.30;1.00;;;;;;5073019;28;20435;-58
2021/04/15 09:54:17;;;;;;;3.20;2.77;;;10.00;1.00;;;;;;5072463;28;20510;-57
2021/04/15 09:57:05;;;;;;;5.20;3.37;;;9.90;1.00;;;;;;5072380;28;20774;-58
2021/04/15 10:00:06;;;;;;;3.80;3.40;;;10.00;1.00;;;;;;5072374;28;20983;-57
2021/04/15 10:03:00;;;;;;;4.47;2.97;;;10.20;1.00;;;;;;5072100;28;20430;-59
2021/04/15 10:05:47;;;;;;;3.57;2.67;;;10.20;1.00;;;;;;5065853;28;20562;-59
2021/04/15 10:08:23;;;;;;;2.90;2.70;;;10.20;1.00;;;;;;5072304;28;20466;-59
2021/04/15 10:10:59;;;;;;;4.63;3.33;;;10.30;1.00;;;;;;5071843;28;20450;-59
2021/04/15 10:13:52;;;;;;;3.13;2.83;;;10.60;1.00;;;;;;5072673;28;20439;-58
2021/04/15 10:16:27;;;;;;;3.47;2.80;;;10.70;1.00;;;;;;5070752;28;20449;-59
2021/04/15 10:19:06;;;;;;;2.17;2.07;;;10.60;1.00;;;;;;5070634;28;21020;-58
2021/04/15 10:21:55;;;;;;;2.80;2.60;;;10.60;1.00;;;;;;5069526;28;20451;-60
2021/04/15 10:24:58;;;;;;;4.00;2.70;;;10.60;1.00;;;;;;5066874;28;20450;-58
2021/04/15 10:27:34;;;;;;;2.80;2.30;;;10.80;1.00;;;;;;5053662;28;20479;-58
2021/04/15 10:30:18;;;;;;;2.00;1.80;;;10.60;1.00;;;;;;5074433;28;20816;-58
2021/04/15 10:33:19;;;;;;;1.97;1.50;;;10.50;1.00;;;;;;5087415;28;20526;-61
2021/04/15 10:36:07;;;;;;;1.83;1.60;;;10.30;1.00;;;;;;5086291;28;20846;-58
2021/04/15 10:39:01;;;;;;;1.60;1.50;;;10.40;1.00;;;;;;5071354;28;20530;-57
2021/04/15 10:41:52;;;;;;;7.50;2.10;;;10.90;1.00;;;;;;5070312;28;20867;-58
2021/04/15 10:44:52;;;;;;;2.17;1.80;;;11.00;1.00;;;;;;5071762;28;20832;-58
2021/04/15 10:47:32;;;;;;;1.83;1.63;;;11.00;1.00;;;;;;5071581;28;20460;-59
2021/04/15 10:50:17;;;;;;;1.97;1.70;;;11.00;1.00;;;;;;5070000;28;20440;-59
2021/04/15 10:53:07;;;;;;;2.10;1.90;;;11.20;1.00;;;;;;5071439;28;20448;-58
2021/04/15 10:55:33;;;;;;;2.60;1.60;;;11.20;1.00;;;;;;5071180;28;20443;-57
2021/04/15 10:58:37;;;;;;;3.87;1.90;;;10.80;1.00;;;;;;5067897;28;20455;-59
2021/04/15 11:01:24;;;;;;;2.23;1.23;;;10.80;1.00;;;;;;5070035;28;20583;-58
2021/04/15 11:03:50;;;;;;;1.77;1.30;;;10.50;1.00;;;;;;5070586;28;20466;-57
2021/04/15 11:06:36;;;;;;;1.23;1.13;;;10.30;1.00;;;;;;5070245;28;20591;-58
2021/04/15 11:09:32;;;;;;;1.47;1.17;;;10.30;1.00;;;;;;5091002;28;20503;-59
2021/04/15 11:12:13;;;;;;;4.13;1.80;;;10.00;1.00;;;;;;5072809;28;20833;-60
2021/04/15 11:14:45;;;;;;;1.50;1.40;;;9.90;1.00;;;;;;5066808;28;20963;-58
2021/04/15 11:17:31;;;;;;;1.57;1.47;;;10.20;1.00;;;;;;5069275;28;20440;-59
2021/04/15 11:20:29;;;;;;;2.03;1.80;;;10.20;1.00;;;;;;5070473;28;20926;-57
2021/04/15 11:22:58;;;;;;;2.20;1.77;;;10.30;1.00;;;;;;5068739;28;20773;-57
2021/04/15 11:25:31;;;;;;;3.47;2.10;;;10.30;1.00;;;;;;5070953;28;20422;-59
2021/04/15 11:28:02;;;;;;;1.83;1.57;;;10.10;1.00;;;;;;5069209;28;20540;-58
2021/04/15 11:30:35;;;;;;;2.50;1.50;;;10.10;1.00;;;;;;5070091;28;20436;-58
2021/04/15 11:33:02;;;;;;;2.23;1.40;;;10.40;1.00;;;;;;5078628;28;20439;-58
2021/04/15 11:35:28;;;;;;;2.67;1.63;;;10.80;1.00;;;;;;5072457;28;20944;-58
2021/04/15 11:38:16;;;;;;;3.17;1.70;;;11.00;1.00;;;;;;5068746;28;20435;-58
2021/04/15 11:40:50;;;;;;;1.30;1.20;;;10.80;1.00;;;;;;5075646;28;20431;-57
2021/04/15 11:43:34;;;;;;;2.40;1.30;;;10.30;1.00;;;;;;5073677;28;20187;-58
2021/04/15 11:46:15;;;;;;;1.10;1.03;;;10.30;1.00;;;;;;5070569;28;20519;-58
2021/04/15 11:48:41;;;;;;;2.63;1.33;;;10.50;1.00;;;;;;5068908;28;20529;-57
2021/04/15 11:51:19;;;;;;;3.00;2.07;;;10.80;1.00;;;;;;5068416;28;20445;-57
2021/04/15 11:53:51;;;;;;;3.10;1.47;;;10.90;1.00;;;;;;5069642;28;20440;-58
2021/04/15 11:56:23;;;;;;;2.20;1.40;;;10.90;1.00;;;;;;5070434;28;20436;-58
2021/04/15 11:58:50;;;;;;;1.53;1.43;;;10.50;1.00;;;;;;5069570;28;20455;-60
2021/04/15 12:01:30;;;;;;;1.50;1.33;;;10.20;1.00;;;;;;5069020;28;20545;-57
2021/04/15 12:04:02;;;;;;;1.50;1.10;;;10.30;1.00;;;;;;5068128;28;20470;-59
2021/04/15 12:06:37;;;;;;;1.37;1.27;;;10.20;1.00;;;;;;5068362;28;20443;-57
2021/04/15 12:09:04;;;;;;;3.00;1.40;;;9.90;1.00;;;;;;5068722;28;20554;-58
2021/04/15 12:11:38;;;;;;;5.77;1.33;;;10.20;1.00;;;;;;5077171;28;20981;-56
2021/04/15 12:14:12;;;;;;;3.60;1.60;;;10.30;1.00;;;;;;5073340;28;20438;-56
2021/04/15 12:16:43;;;;;;;2.10;1.90;;;10.30;1.00;;;;;;5070223;28;20448;-58
2021/04/15 12:19:14;;;;;;;3.97;1.70;;;10.80;1.00;;;;;;5076024;28;20535;-57
2021/04/15 12:22:08;;;;;;;1.70;1.30;;;8.20;1.00;;;;;;5069346;28;20961;-60
2021/04/15 12:24:45;;;;;;;1.80;1.70;;;9.80;1.00;;;;;;5069532;28;20436;-58
2021/04/15 12:27:16;;;;;;;2.57;1.93;;;9.80;1.00;;;;;;5084861;28;20474;-57
2021/04/15 12:29:47;;;;;;;2.03;1.70;;;9.50;1.00;;;;;;5069096;28;20436;-57
2021/04/15 12:32:32;;;;;;;1.70;1.60;;;9.50;1.00;;;;;;5070653;28;21066;-58
2021/04/15 12:35:14;;;;;;;3.53;2.10;;;9.50;1.00;;;;;;5069224;28;20437;-57
2021/04/15 12:37:48;;;;;;;2.23;2.03;;;9.90;1.00;;;;;;5069028;28;20818;-57
2021/04/15 12:40:26;;;;;;;2.47;1.30;;;10.00;1.00;;;;;;5069688;28;20472;-58
2021/04/15 12:42:55;;;;;;;2.20;2.00;;;10.50;1.00;;;;;;5069884;28;20444;-57
2021/04/15 12:45:32;;;;;;;2.30;2.03;;;10.40;1.00;;;;;;5068066;28;20461;-59
2021/04/15 12:48:01;;;;;;;1.90;1.40;;;10.30;1.00;;;;;;5069240;28;20468;-57
2021/04/15 12:50:27;;;;;;;1.73;1.63;;;10.30;1.00;;;;;;5073140;28;20827;-57
2021/04/15 12:52:54;;;;;;;6.63;2.80;;;10.30;1.00;;;;;;5073186;28;20442;-58
2021/04/15 12:55:22;;;;;;;1.90;1.73;;;10.40;1.00;;;;;;5073941;28;20436;-57
2021/04/15 12:57:49;;;;;;;2.67;1.70;;;10.70;1.00;;;;;;5073612;28;20870;-58
2021/04/15 13:00:39;;;;;;;2.30;2.10;;;10.40;1.00;;;;;;5075697;28;20473;-57
2021/04/15 13:03:18;;;;;;;3.43;2.10;;;10.10;1.00;;;;;;5082177;28;20452;-58
2021/04/15 13:05:49;;;;;;;1.93;1.83;;;9.60;1.00;;;;;;5080090;28;21033;-58
2021/04/15 13:08:33;;;;;;;2.40;2.00;;;9.90;1.00;;;;;;5090826;28;20493;-58
2021/04/15 13:11:03;;;;;;;2.33;1.83;;;9.90;1.00;;;;;;5072966;28;21056;-59
2021/04/15 13:13:43;;;;;;;4.13;2.07;;;9.70;1.00;;;;;;5072136;28;20438;-59
2021/04/15 13:16:32;;;;;;;1.77;1.67;;;9.10;1.00;;;;;;5071824;28;20501;-58
2021/04/15 13:19:00;;;;;;;4.70;2.77;;;8.60;1.00;;;;;;5060674;28;20437;-57
2021/04/15 13:21:34;;;;;;;3.00;1.93;;;8.50;1.00;;;;;;5077757;28;20911;-59
2021/04/15 13:24:00;;;;;;;2.67;2.03;;;8.50;1.00;;;;;;5071190;28;20800;-57
2021/04/15 13:26:35;;;;;;;2.17;1.97;;;8.60;1.00;;;;;;5072702;28;20452;-57
2021/04/15 13:29:11;;;;;;;2.20;2.00;;;8.50;1.00;;;;;;5071081;28;20470;-57
2021/04/15 13:32:03;;;;;;;3.93;2.93;;;9.00;1.00;;;;;;5070784;28;20446;-59
2021/04/15 13:35:00;;;;;;;5.07;2.13;;;9.10;1.00;;;;;;5068748;28;20516;-58
2021/04/15 13:37:46;;;;;;;2.90;2.13;;;9.20;1.00;;;;;;5071037;28;20450;-58
2021/04/15 13:40:23;;;;;;;2.40;2.20;;;9.20;1.00;;;;;;5072531;28;20443;-58
2021/04/15 13:42:48;;;;;;;2.90;1.97;;;9.20;1.00;;;;;;5070944;28;20506;-60
2021/04/15 13:45:38;;;;;;;1.80;1.70;;;9.00;1.00;;;;;;5072046;28;20956;-58
2021/04/15 13:48:05;;;;;;;2.60;2.00;;;8.90;1.00;;;;;;5082655;28;20205;-57
2021/04/15 13:51:06;;;;;;;2.67;2.47;;;8.90;1.00;;;;;;5072875;28;20492;-59
2021/04/15 13:53:43;;;;;;;2.77;2.53;;;8.40;1.00;;;;;;5070016;28;20433;-57
2021/04/15 13:56:09;;;;;;;3.43;3.23;;;8.40;1.00;;;;;;5070046;28;20492;-58
2021/04/15 13:58:39;;;;;;;3.83;3.17;;;8.30;1.00;;;;;;5071948;28;20449;-60
2021/04/15 14:01:38;;;;;;;4.50;4.10;;;7.90;1.00;;;;;;5071582;28;20215;-60
2021/04/15 14:04:04;;;;;;;5.73;5.30;;;7.70;1.00;;;;;;5072555;28;20810;-59
2021/04/15 14:06:30;;;;;;;6.20;5.60;;;7.70;1.00;;;;;;5071122;28;20450;-60
2021/04/15 14:09:16;;;;;;;5.83;5.23;;;7.60;1.00;;;;;;5072350;28;20206;-59